createdAt,value
2018-11-23T00:00:41.464Z,5.12
2018-11-23T00:03:11.581Z,5.11
2018-11-23T00:05:42.052Z,5.07
2018-11-23T00:08:11.791Z,5.09
2018-11-23T00:10:43.591Z,5.10
2018-11-23T00:13:13.037Z,5.20
2018-11-23T00:18:23.437Z,5.22
2018-11-23T00:23:38.655Z,5.34
2018-11-23T00:26:11.470Z,5.36
2018-11-23T00:28:43.463Z,5.40
2018-11-23T00:31:12.325Z,5.37
2018-11-23T00:33:46.769Z,5.29
2018-11-23T00:36:19.360Z,5.18
2018-11-23T00:39:00.011Z,5.07
2018-11-23T00:41:29.177Z,4.92
2018-11-23T00:43:58.009Z,4.84
2018-11-23T00:46:26.743Z,4.75
2018-11-23T00:49:06.242Z,4.78
2018-11-23T00:51:43.699Z,4.78
2018-11-23T00:54:13.059Z,4.62
2018-11-23T00:56:46.914Z,4.64
2018-11-23T00:59:16.404Z,4.86
2018-11-23T01:01:51.188Z,4.87
2018-11-23T01:04:21.162Z,5.01
2018-11-23T01:06:49.880Z,5.05
2018-11-23T01:09:19.415Z,5.04
2018-11-23T01:11:48.091Z,5.13
2018-11-23T01:14:16.892Z,5.08
2018-11-23T01:16:45.549Z,5.15
2018-11-23T01:19:14.208Z,5.16
2018-11-23T01:21:44.251Z,5.18
2018-11-23T01:24:14.336Z,5.22
2018-11-23T01:26:43.141Z,5.17
2018-11-23T01:29:15.543Z,5.04
2018-11-23T01:31:53.712Z,4.98
2018-11-23T01:34:26.516Z,5.09
2018-11-23T01:36:55.790Z,5.01
2018-11-23T01:39:29.958Z,4.95
2018-11-23T01:42:11.771Z,4.92
2018-11-23T01:44:46.599Z,4.92
2018-11-23T01:47:15.193Z,4.86
2018-11-23T01:49:45.743Z,4.83
2018-11-23T01:52:14.963Z,4.85
2018-11-23T01:54:45.643Z,4.80
2018-11-23T01:57:17.280Z,4.77
2018-11-23T01:59:46.693Z,4.92
2018-11-23T02:02:15.189Z,4.96
2018-11-23T02:04:43.756Z,4.94
2018-11-23T02:07:12.315Z,4.89
2018-11-23T02:09:43.401Z,4.80
2018-11-23T02:12:14.859Z,4.74
2018-11-23T02:14:44.393Z,4.66
2018-11-23T02:17:22.913Z,4.73
2018-11-23T02:20:01.972Z,4.72
2018-11-23T02:22:31.034Z,4.71
2018-11-23T02:25:06.736Z,4.72
2018-11-23T02:27:35.978Z,4.71
2018-11-23T02:30:13.347Z,4.73
2018-11-23T02:39:36.848Z,5.00
2018-11-23T02:50:08.761Z,4.94
2018-11-23T02:52:58.425Z,4.91
2018-11-23T03:01:57.794Z,4.79
2018-11-23T03:07:10.552Z,4.75
2018-11-23T03:09:43.460Z,4.76
2018-11-23T03:12:11.889Z,4.76
2018-11-23T03:14:40.352Z,4.55
2018-11-23T03:17:08.840Z,4.65
2018-11-23T03:19:37.320Z,4.59
2018-11-23T03:22:05.894Z,4.65
2018-11-23T03:24:34.357Z,4.61
2018-11-23T03:27:04.413Z,4.56
2018-11-23T03:29:32.892Z,4.47
2018-11-23T03:32:02.853Z,4.56
2018-11-23T03:34:31.358Z,4.49
2018-11-23T03:36:59.812Z,4.42
2018-11-23T03:39:34.060Z,4.30
2018-11-23T03:41:56.876Z,4.35
2018-11-23T03:44:25.348Z,4.57
2018-11-23T03:46:53.795Z,4.33
2018-11-23T03:49:22.354Z,4.10
2018-11-23T03:51:50.767Z,4.22
2018-11-23T03:54:19.212Z,4.30
2018-11-23T03:56:47.643Z,4.33
2018-11-23T03:59:16.100Z,4.25
2018-11-23T04:01:44.624Z,4.33
2018-11-23T04:04:13.139Z,4.42
2018-11-23T04:06:41.650Z,4.45
2018-11-23T04:09:10.195Z,4.63
2018-11-23T04:11:38.631Z,4.56
2018-11-23T04:14:07.097Z,4.53
2018-11-23T04:16:35.599Z,4.54
2018-11-23T04:19:05.321Z,4.52
2018-11-23T04:21:33.772Z,4.47
2018-11-23T04:24:03.969Z,4.55
2018-11-23T04:26:32.431Z,4.60
2018-11-23T04:29:00.883Z,4.65
2018-11-23T04:31:29.369Z,4.78
2018-11-23T04:33:57.879Z,4.66
2018-11-23T04:36:26.359Z,4.71
2018-11-23T04:38:54.815Z,4.71
2018-11-23T04:41:23.308Z,4.58
2018-11-23T04:43:51.788Z,4.61
2018-11-23T04:46:20.248Z,4.68
2018-11-23T04:48:48.704Z,4.52
2018-11-23T04:51:17.161Z,4.35
2018-11-23T04:53:45.590Z,4.14
2018-11-23T04:56:14.065Z,3.97
2018-11-23T04:58:42.534Z,4.12
2018-11-23T05:01:11.009Z,4.19
2018-11-23T05:03:39.440Z,4.25
2018-11-23T05:06:07.938Z,4.31
2018-11-23T05:08:36.367Z,4.44
2018-11-23T05:11:05.262Z,4.47
2018-11-23T05:13:33.744Z,4.39
2018-11-23T05:16:04.502Z,4.28
2018-11-23T05:18:32.977Z,4.26
2018-11-23T05:21:03.773Z,4.38
2018-11-23T05:23:32.187Z,4.44
2018-11-23T05:26:00.740Z,4.45
2018-11-23T05:28:29.237Z,4.52
2018-11-23T05:30:57.648Z,4.46
2018-11-23T05:33:26.221Z,4.24
2018-11-23T05:35:54.643Z,3.96
2018-11-23T05:38:23.099Z,3.85
2018-11-23T05:40:51.563Z,3.99
2018-11-23T05:43:20.042Z,4.03
2018-11-23T05:45:48.503Z,4.10
2018-11-23T05:48:16.980Z,4.06
2018-11-23T05:50:45.400Z,3.93
2018-11-23T05:53:13.918Z,3.98
2018-11-23T05:55:42.509Z,4.16
2018-11-23T05:58:11.002Z,4.22
2018-11-23T06:00:40.107Z,4.22
2018-11-23T06:03:08.589Z,4.30
2018-11-23T06:05:37.070Z,4.45
2018-11-23T06:08:05.588Z,4.35
2018-11-23T06:10:34.043Z,4.36
2018-11-23T06:13:03.947Z,4.42
2018-11-23T06:15:32.351Z,4.32
2018-11-23T06:18:00.839Z,4.34
2018-11-23T06:20:29.280Z,4.50
2018-11-23T06:22:57.843Z,4.48
2018-11-23T06:25:44.341Z,4.48
2018-11-23T06:28:13.091Z,4.53
2018-11-23T06:30:42.263Z,4.61
2018-11-23T06:33:21.977Z,4.60
2018-11-23T06:35:50.416Z,4.59
2018-11-23T06:38:18.823Z,4.66
2018-11-23T06:40:47.253Z,4.77
2018-11-23T06:43:15.645Z,4.66
2018-11-23T06:45:44.874Z,4.64
2018-11-23T06:48:14.132Z,4.67
2018-11-23T06:50:43.219Z,4.69
2018-11-23T06:53:11.604Z,4.70
2018-11-23T06:55:40.010Z,4.58
2018-11-23T06:58:08.395Z,4.50
2018-11-23T07:00:36.811Z,4.48
2018-11-23T07:03:05.343Z,4.45
2018-11-23T07:05:33.739Z,4.46
2018-11-23T07:08:04.815Z,4.59
2018-11-23T07:10:33.257Z,4.63
2018-11-23T07:13:03.666Z,4.56
2018-11-23T07:15:32.099Z,4.74
2018-11-23T07:18:00.618Z,4.66
2018-11-23T07:20:29.054Z,4.60
2018-11-23T07:22:57.499Z,4.49
2018-11-23T07:25:25.904Z,4.47
2018-11-23T07:27:54.318Z,4.50
2018-11-23T07:30:27.090Z,4.52
2018-11-23T07:32:55.603Z,4.57
2018-11-23T07:35:24.020Z,4.54
2018-11-23T07:37:52.512Z,4.24
2018-11-23T07:40:40.619Z,4.30
2018-11-23T07:43:09.034Z,4.41
2018-11-23T07:45:37.427Z,4.51
2018-11-23T07:48:06.551Z,4.58
2018-11-23T07:50:34.962Z,4.49
2018-11-23T07:53:05.150Z,4.51
2018-11-23T07:55:33.527Z,4.34
2018-11-23T07:58:04.534Z,4.24
2018-11-23T08:00:32.944Z,4.42
2018-11-23T08:03:03.586Z,4.46
2018-11-23T08:05:31.980Z,4.70
2018-11-23T08:08:00.460Z,4.75
2018-11-23T08:10:28.003Z,4.81
2018-11-23T08:12:56.392Z,4.86
2018-11-23T08:15:26.163Z,4.65
2018-11-23T08:17:54.563Z,4.46
2018-11-23T08:20:24.044Z,4.23
2018-11-23T08:22:52.439Z,4.31
2018-11-23T08:25:22.029Z,4.45
2018-11-23T08:27:51.499Z,4.41
2018-11-23T08:30:24.637Z,4.18
2018-11-23T08:32:53.322Z,4.15
2018-11-23T08:35:21.718Z,4.05
2018-11-23T08:37:50.167Z,4.24
2018-11-23T08:40:20.775Z,4.47
2018-11-23T08:42:49.983Z,4.45
2018-11-23T08:45:20.395Z,4.35
2018-11-23T08:47:48.840Z,4.30
2018-11-23T08:50:20.727Z,4.10
2018-11-23T08:52:49.268Z,3.87
2018-11-23T08:55:18.227Z,3.68
2018-11-23T08:57:46.664Z,3.73
2018-11-23T09:00:20.139Z,3.73
2018-11-23T09:02:49.787Z,3.82
2018-11-23T09:05:18.466Z,3.89
2018-11-23T09:07:47.908Z,3.94
2018-11-23T09:10:18.012Z,4.12
2018-11-23T09:12:48.390Z,4.45
2018-11-23T09:15:17.600Z,4.64
2018-11-23T09:17:46.107Z,4.66
2018-11-23T09:20:15.233Z,4.60
2018-11-23T09:22:43.693Z,4.44
2018-11-23T09:25:13.619Z,4.44
2018-11-23T09:27:42.035Z,4.45
2018-11-23T09:30:15.207Z,4.46
2018-11-23T09:32:44.408Z,4.44
2018-11-23T09:35:12.886Z,4.49
2018-11-23T09:37:41.776Z,4.57
2018-11-23T09:40:16.287Z,4.85
2018-11-23T09:42:44.716Z,4.97
2018-11-23T09:45:15.629Z,5.05
2018-11-23T09:47:44.804Z,5.13
2018-11-23T09:50:14.692Z,5.11
2018-11-23T09:52:43.736Z,5.17
2018-11-23T09:55:12.214Z,5.04
2018-11-23T09:57:40.943Z,4.89
2018-11-23T10:00:16.160Z,4.64
2018-11-23T10:02:45.383Z,4.52
2018-11-23T10:05:14.687Z,4.57
2018-11-23T10:07:44.336Z,4.82
2018-11-23T10:10:13.930Z,5.05
2018-11-23T10:12:42.680Z,5.06
2018-11-23T10:15:12.381Z,4.85
2018-11-23T10:17:40.935Z,4.70
2018-11-23T10:20:12.626Z,4.93
2018-11-23T10:22:41.511Z,5.12
2018-11-23T10:25:11.578Z,5.24
2018-11-23T10:27:40.669Z,5.33
2018-11-23T10:30:18.567Z,5.23
2018-11-23T10:32:48.031Z,4.87
2018-11-23T10:35:16.411Z,4.69
2018-11-23T10:37:45.848Z,4.86
2018-11-23T10:40:18.091Z,5.05
2018-11-23T10:42:46.631Z,5.30
2018-11-23T10:45:20.857Z,5.41
2018-11-23T10:47:50.021Z,5.44
2018-11-23T10:50:20.828Z,5.27
2018-11-23T10:52:49.412Z,5.22
2018-11-23T10:55:19.952Z,5.40
2018-11-23T10:57:48.422Z,5.53
2018-11-23T11:00:23.164Z,5.66
2018-11-23T11:02:58.075Z,5.73
2018-11-23T11:05:31.687Z,5.82
2018-11-23T11:08:03.815Z,5.88
2018-11-23T11:10:32.232Z,5.82
2018-11-23T11:13:00.709Z,5.88
2018-11-23T11:15:29.166Z,5.80
2018-11-23T11:17:57.554Z,5.57
2018-11-23T11:20:25.955Z,5.38
2018-11-23T11:22:54.385Z,5.42
2018-11-23T11:25:23.000Z,5.32
2018-11-23T11:27:51.535Z,5.29
2018-11-23T11:30:20.313Z,5.33
2018-11-23T11:32:49.425Z,5.26
2018-11-23T11:35:17.936Z,5.11
2018-11-23T11:37:47.528Z,4.99
2018-11-23T11:40:17.569Z,4.85
2018-11-23T11:42:46.212Z,4.78
2018-11-23T11:45:16.084Z,4.95
2018-11-23T11:47:45.262Z,5.08
2018-11-23T11:50:14.150Z,5.13
2018-11-23T11:52:43.810Z,5.03
2018-11-23T11:55:14.236Z,4.82
2018-11-23T11:57:43.298Z,4.68
2018-11-23T12:00:16.460Z,4.73
2018-11-23T12:02:45.066Z,4.86
2018-11-23T12:05:14.278Z,4.90
2018-11-23T12:07:42.796Z,4.85
2018-11-23T12:10:13.767Z,4.80
2018-11-23T12:12:42.245Z,4.85
2018-11-23T12:15:11.774Z,5.02
2018-11-23T12:17:40.547Z,5.14
2018-11-23T12:20:12.036Z,5.26
2018-11-23T12:22:40.731Z,5.50
2018-11-23T12:25:09.291Z,5.62
2018-11-23T12:27:37.771Z,5.70
2018-11-23T12:30:10.656Z,5.77
2018-11-23T12:32:39.145Z,5.94
2018-11-23T12:35:09.016Z,5.97
2018-11-23T12:37:37.424Z,6.03
2018-11-23T12:40:07.247Z,6.09
2018-11-23T12:42:35.643Z,6.06
2018-11-23T12:45:06.555Z,5.93
2018-11-23T12:47:34.938Z,5.95
2018-11-23T12:50:06.255Z,5.79
2018-11-23T12:52:34.661Z,5.58
2018-11-23T12:55:05.788Z,5.38
2018-11-23T12:57:34.256Z,5.27
2018-11-23T13:00:06.140Z,5.28
2018-11-23T13:02:34.555Z,5.16
2018-11-23T13:05:05.371Z,5.16
2018-11-23T13:07:33.742Z,5.24
2018-11-23T13:10:04.578Z,5.34
2018-11-23T13:12:32.955Z,5.37
2018-11-23T13:15:03.527Z,5.60
2018-11-23T13:17:31.969Z,5.79
2018-11-23T13:20:00.532Z,5.83
2018-11-23T13:22:28.960Z,5.92
2018-11-23T13:24:57.338Z,5.91
2018-11-23T13:27:25.803Z,5.96
2018-11-23T13:29:54.280Z,5.84
2018-11-23T13:32:22.722Z,5.81
2018-11-23T13:34:51.108Z,5.96
2018-11-23T13:37:20.062Z,6.06
2018-11-23T13:39:48.448Z,6.17
2018-11-23T13:42:16.844Z,6.26
2018-11-23T13:44:45.243Z,6.23
2018-11-23T13:47:13.663Z,5.97
2018-11-23T13:49:42.059Z,5.86
2018-11-23T13:52:10.439Z,5.67
2018-11-23T13:54:39.115Z,5.45
2018-11-23T13:57:07.509Z,5.31
2018-11-23T13:59:35.912Z,5.24
2018-11-23T14:02:05.147Z,5.34
2018-11-23T14:04:33.531Z,5.43
2018-11-23T14:07:04.522Z,5.50
2018-11-23T14:09:33.906Z,5.70
2018-11-23T14:12:04.476Z,5.70
2018-11-23T14:14:33.066Z,5.77
2018-11-23T14:17:03.454Z,5.86
2018-11-23T14:19:31.938Z,5.90
2018-11-23T14:22:00.369Z,5.77
2018-11-23T14:24:28.956Z,5.75
2018-11-23T14:26:57.501Z,5.79
2018-11-23T14:29:25.895Z,5.72
2018-11-23T14:31:54.725Z,5.78
2018-11-23T14:34:23.164Z,5.81
2018-11-23T14:36:51.675Z,5.88
2018-11-23T14:39:20.050Z,5.87
2018-11-23T14:41:48.458Z,6.04
2018-11-23T14:44:16.991Z,6.02
2018-11-23T14:46:45.415Z,5.98
2018-11-23T14:49:14.460Z,6.07
2018-11-23T14:51:42.872Z,5.98
2018-11-23T14:54:11.344Z,6.10
2018-11-23T14:56:40.195Z,6.06
2018-11-23T14:59:08.862Z,6.02
2018-11-23T15:01:37.230Z,6.08
2018-11-23T15:04:05.680Z,6.07
2018-11-23T15:06:34.107Z,6.09
2018-11-23T15:09:04.627Z,6.07
2018-11-23T15:11:39.655Z,6.06
2018-11-23T15:14:08.840Z,5.99
2018-11-23T15:16:37.569Z,5.95
2018-11-23T15:19:06.762Z,5.92
2018-11-23T15:21:35.186Z,6.01
2018-11-23T15:24:06.099Z,5.96
2018-11-23T15:26:34.559Z,5.96
2018-11-23T15:29:05.535Z,5.98
2018-11-23T15:31:33.971Z,5.98
2018-11-23T15:34:04.628Z,6.03
2018-11-23T15:36:33.103Z,6.01
2018-11-23T15:39:03.671Z,5.94
2018-11-23T15:41:32.055Z,5.67
2018-11-23T15:44:00.531Z,5.49
2018-11-23T15:46:28.952Z,5.26
2018-11-23T15:48:57.419Z,5.16
2018-11-23T15:51:25.832Z,5.17
2018-11-23T15:53:54.279Z,5.10
2018-11-23T15:56:22.673Z,5.18
2018-11-23T15:58:51.897Z,5.22
2018-11-23T16:01:20.364Z,5.28
2018-11-23T16:03:48.868Z,5.31
2018-11-23T16:06:17.359Z,5.24
2018-11-23T16:08:45.747Z,5.48
2018-11-23T16:11:14.176Z,5.67
2018-11-23T16:13:42.588Z,5.71
2018-11-23T16:16:11.082Z,5.86
2018-11-23T16:18:39.491Z,5.93
2018-11-23T16:21:07.951Z,5.94
2018-11-23T16:23:36.391Z,6.02
2018-11-23T16:26:06.027Z,6.04
2018-11-23T16:28:34.618Z,6.06
2018-11-23T16:31:05.891Z,6.04
2018-11-23T16:33:34.336Z,6.12
2018-11-23T16:36:05.113Z,6.07
2018-11-23T16:38:34.007Z,6.10
2018-11-23T16:41:04.432Z,6.08
2018-11-23T16:43:33.183Z,6.11
2018-11-23T16:46:03.516Z,6.11
2018-11-23T16:48:31.904Z,6.11
2018-11-23T16:51:00.333Z,6.15
2018-11-23T16:53:28.719Z,6.25
2018-11-23T16:55:57.166Z,6.26
2018-11-23T16:58:25.570Z,6.18
2018-11-23T17:00:54.014Z,6.14
2018-11-23T17:03:23.212Z,6.09
2018-11-23T17:05:54.123Z,6.16
2018-11-23T17:08:22.510Z,6.14
2018-11-23T17:10:50.927Z,6.17
2018-11-23T17:13:19.403Z,6.11
2018-11-23T17:15:47.818Z,6.17
2018-11-23T17:18:16.301Z,6.25
2018-11-23T17:20:44.724Z,6.19
2018-11-23T17:23:14.039Z,6.15
2018-11-23T17:25:42.418Z,6.09
2018-11-23T17:28:11.613Z,6.06
2018-11-23T17:30:40.368Z,6.07
2018-11-23T17:33:08.767Z,6.13
2018-11-23T17:35:37.883Z,6.12
2018-11-23T17:38:06.631Z,6.12
2018-11-23T17:40:37.358Z,6.16
2018-11-23T17:43:05.987Z,6.17
2018-11-23T17:45:34.804Z,6.19
2018-11-23T17:48:06.048Z,6.09
2018-11-23T17:50:35.873Z,6.11
2018-11-23T17:53:05.355Z,6.16
2018-11-23T17:55:33.960Z,6.11
2018-11-23T17:58:04.644Z,6.08
2018-11-23T18:00:38.902Z,6.07
2018-11-23T18:03:04.930Z,6.03
2018-11-23T18:05:34.181Z,5.99
2018-11-23T18:08:05.362Z,5.99
2018-11-23T18:10:34.506Z,6.06
2018-11-23T18:13:05.724Z,5.98
2018-11-23T18:15:34.982Z,5.95
2018-11-23T18:18:06.796Z,5.92
2018-11-23T18:20:35.503Z,5.94
2018-11-23T18:23:05.811Z,5.94
2018-11-23T18:25:36.204Z,5.94
2018-11-23T18:28:06.906Z,6.03
2018-11-23T18:30:35.450Z,5.95
2018-11-23T18:33:07.544Z,5.89
2018-11-23T18:35:35.967Z,5.83
2018-11-23T18:38:05.135Z,5.82
2018-11-23T18:40:37.547Z,5.78
2018-11-23T18:43:04.636Z,5.60
2018-11-23T18:45:33.123Z,5.58
2018-11-23T18:48:03.535Z,5.59
2018-11-23T18:50:32.016Z,5.46
2018-11-23T18:53:00.421Z,5.54
2018-11-23T18:55:28.883Z,5.63
2018-11-23T18:57:57.340Z,5.58
2018-11-23T19:00:26.036Z,5.68
2018-11-23T19:02:54.503Z,5.66
2018-11-23T19:05:24.724Z,5.71
2018-11-23T19:07:53.223Z,5.56
2018-11-23T19:10:21.660Z,5.46
2018-11-23T19:12:50.139Z,5.41
2018-11-23T19:15:25.230Z,5.43
2018-11-23T19:17:47.679Z,5.53
2018-11-23T19:20:21.539Z,5.58
2018-11-23T19:22:52.048Z,5.72
2018-11-23T19:25:20.513Z,5.75
2018-11-23T19:27:48.961Z,5.91
2018-11-23T19:30:19.060Z,5.89
2018-11-23T19:32:47.529Z,5.73
2018-11-23T19:35:16.666Z,5.71
2018-11-23T19:37:45.511Z,5.73
2018-11-23T19:40:16.039Z,5.66
2018-11-23T19:42:45.487Z,5.69
2018-11-23T19:45:16.008Z,5.75
2018-11-23T19:47:44.667Z,5.93
2018-11-23T19:50:16.964Z,5.92
2018-11-23T19:52:45.568Z,5.79
2018-11-23T19:55:15.189Z,5.91
2018-11-23T19:57:43.676Z,5.88
2018-11-23T20:00:29.682Z,5.94
2018-11-23T20:02:58.109Z,5.95
2018-11-23T20:05:26.847Z,5.99
2018-11-23T20:07:56.456Z,6.10
2018-11-23T20:10:25.436Z,6.13
2018-11-23T20:12:57.676Z,6.18
2018-11-23T20:15:26.168Z,6.11
2018-11-23T20:17:56.442Z,6.11
2018-11-23T20:20:25.587Z,6.15
2018-11-23T20:22:54.147Z,6.12
2018-11-23T20:25:22.585Z,6.09
2018-11-23T20:27:52.469Z,6.13
2018-11-23T20:30:28.100Z,6.09
2018-11-23T20:32:56.548Z,6.01
2018-11-23T20:35:24.990Z,5.88
2018-11-23T20:37:55.478Z,5.85
2018-11-23T20:40:24.188Z,5.96
2018-11-23T20:42:53.286Z,5.89
2018-11-23T20:45:21.927Z,6.01
2018-11-23T20:47:50.448Z,5.89
2018-11-23T20:50:19.403Z,5.98
2018-11-23T20:52:49.538Z,6.06
2018-11-23T20:55:21.200Z,6.13
2018-11-23T20:57:50.055Z,6.15
2018-11-23T21:00:19.984Z,6.12
2018-11-23T21:02:49.577Z,5.97
2018-11-23T21:05:19.396Z,5.87
2018-11-23T21:07:47.868Z,5.84
2018-11-23T21:10:20.681Z,5.65
2018-11-23T21:12:48.475Z,5.42
2018-11-23T21:15:26.613Z,5.19
2018-11-23T21:17:55.562Z,5.05
2018-11-23T21:20:24.037Z,5.09
2018-11-23T21:22:52.879Z,5.09
2018-11-23T21:25:22.233Z,5.12
2018-11-23T21:27:53.308Z,5.18
2018-11-23T21:30:25.048Z,5.04
2018-11-23T21:32:55.972Z,4.95
2018-11-23T21:35:27.249Z,4.92
2018-11-23T21:37:57.297Z,4.95
2018-11-23T21:40:29.447Z,4.95
2018-11-23T21:42:59.642Z,4.89
2018-11-23T21:45:31.790Z,4.95
2018-11-23T21:48:08.803Z,4.91
2018-11-23T21:50:46.197Z,5.04
2018-11-23T21:53:15.846Z,5.06
2018-11-23T21:55:45.853Z,4.93
2018-11-23T21:58:21.163Z,4.96
2018-11-23T22:00:49.662Z,5.15
2018-11-23T22:03:18.076Z,5.37
2018-11-23T22:05:48.143Z,5.52
2018-11-23T22:08:18.658Z,5.49
2018-11-23T22:10:48.352Z,5.70
2018-11-23T22:13:18.596Z,5.67
2018-11-23T22:15:47.051Z,5.70
2018-11-23T22:18:15.700Z,5.78
2018-11-23T22:20:44.168Z,5.88
2018-11-23T22:23:15.858Z,5.76
2018-11-23T22:25:44.311Z,5.77
2018-11-23T22:28:12.879Z,5.69
2018-11-23T22:30:43.027Z,5.64
2018-11-23T22:33:11.444Z,5.65
2018-11-23T22:35:39.911Z,5.65
2018-11-23T22:38:08.369Z,5.78
2018-11-23T22:40:36.812Z,5.79
2018-11-23T22:43:05.581Z,5.84
2018-11-23T22:45:34.020Z,5.81
2018-11-23T22:48:05.395Z,5.91
2018-11-23T22:50:33.803Z,5.95
2018-11-23T22:53:05.763Z,6.03
2018-11-23T22:55:34.259Z,5.93
2018-11-23T22:58:05.356Z,5.86
2018-11-23T23:03:10.421Z,5.81
2018-11-23T23:05:42.471Z,5.90
2018-11-23T23:08:07.319Z,5.98
2018-11-23T23:10:35.792Z,5.92
2018-11-23T23:13:05.309Z,6.00
2018-11-23T23:15:33.787Z,5.93
2018-11-23T23:18:05.759Z,5.98
2018-11-23T23:20:34.152Z,5.97
2018-11-23T23:23:04.566Z,5.95
2018-11-23T23:25:33.070Z,5.91
2018-11-23T23:28:04.150Z,5.92
2018-11-23T23:30:32.672Z,5.90
2018-11-23T23:33:04.480Z,5.95
2018-11-23T23:35:32.887Z,5.94
2018-11-23T23:38:03.707Z,6.06
2018-11-23T23:40:32.158Z,5.98
2018-11-23T23:43:00.592Z,5.96
2018-11-23T23:45:29.091Z,5.92
2018-11-23T23:47:57.582Z,5.89
2018-11-23T23:50:25.987Z,5.99
2018-11-23T23:53:04.236Z,5.96
2018-11-23T23:55:32.645Z,5.97
2018-11-23T23:58:03.637Z,6.03
